Time;durP1;ratioP1;P1;durP2;ratioP2;P2;SDS_P1;SDS_P2;PMS_P1;PMS_P2;Temp;Humidity;BMP_temperature;BMP_pressure;BME280_temperature;BME280_humidity;BME280_pressure;Samples;Min_cycle;Max_cycle;Signal;HPM_P1;HPM_P2
2021/10/08 00:01:56;;;;;;;1.25;0.90;;;;;;;8.00;100.00;102868.94;6252488;28;20377;-86
2021/10/08 00:04:57;;;;;;;2.03;1.38;;;;;;;7.99;100.00;102859.31;6272773;28;20416;-85
2021/10/08 00:08:01;;;;;;;1.15;0.90;;;;;;;7.99;100.00;102863.69;6266702;28;20420;-85
2021/10/08 00:11:04;;;;;;;1.20;1.10;;;;;;;7.91;100.00;102869.00;6252872;28;20126;-85
2021/10/08 00:14:05;;;;;;;2.53;1.20;;;;;;;7.86;100.00;102861.19;6252269;28;20053;-85
2021/10/08 00:17:07;;;;;;;1.77;1.10;;;;;;;7.82;100.00;102862.09;6251582;28;20053;-84
2021/10/08 00:20:10;;;;;;;2.13;1.08;;;;;;;7.83;100.00;102868.19;6253157;28;20053;-84
2021/10/08 00:23:11;;;;;;;4.15;1.63;;;;;;;7.77;100.00;102863.88;6253101;28;20050;-85
2021/10/08 00:26:14;;;;;;;1.65;1.40;;;;;;;7.76;100.00;102858.63;6254047;28;20057;-86
2021/10/08 00:29:15;;;;;;;2.05;1.30;;;;;;;7.74;100.00;102868.28;6253048;28;20049;-85
2021/10/08 00:32:17;;;;;;;2.00;1.25;;;;;;;7.73;100.00;102863.91;6253515;28;20045;-85
2021/10/08 00:35:18;;;;;;;2.10;1.00;;;;;;;7.67;100.00;102877.03;6253413;28;20049;-84
2021/10/08 00:38:20;;;;;;;4.35;1.60;;;;;;;7.61;100.00;102886.66;6255713;28;20412;-84
2021/10/08 00:41:23;;;;;;;2.72;1.38;;;;;;;7.61;100.00;102884.03;6254775;28;20049;-84
2021/10/08 00:44:25;;;;;;;2.53;1.75;;;;;;;7.60;100.00;102878.84;6254413;28;20053;-85
2021/10/08 00:47:26;;;;;;;1.50;1.02;;;;;;;7.55;100.00;102876.25;6254107;28;20045;-85
2021/10/08 00:50:28;;;;;;;6.35;1.40;;;;;;;7.53;100.00;102875.38;6255762;28;20057;-84
2021/10/08 00:53:30;;;;;;;2.85;1.17;;;;;;;7.49;100.00;102878.88;6254707;28;20061;-85
2021/10/08 00:56:33;;;;;;;2.30;1.48;;;;;;;7.52;100.00;102875.38;6255053;28;20045;-85
2021/10/08 00:59:36;;;;;;;2.55;1.65;;;;;;;7.50;100.00;102878.03;6255205;28;20060;-84
2021/10/08 01:02:37;;;;;;;2.80;1.38;;;;;;;7.48;100.00;102878.91;6255441;28;20125;-84
2021/10/08 01:05:40;;;;;;;2.33;1.13;;;;;;;7.47;100.00;102885.03;6255323;28;20076;-84
2021/10/08 01:08:41;;;;;;;2.72;1.10;;;;;;;7.44;100.00;102880.66;6256028;28;20053;-85
2021/10/08 01:11:44;;;;;;;2.47;1.42;;;;;;;7.44;100.00;102885.03;6256451;28;20053;-85
2021/10/08 01:14:46;;;;;;;2.58;1.27;;;;;;;7.41;100.00;102882.44;6256543;28;20085;-85
2021/10/08 01:17:51;;;;;;;3.25;1.80;;;;;;;7.40;100.00;102883.31;6256860;28;20045;-85
2021/10/08 01:20:54;;;;;;;1.00;0.75;;;;;;;7.36;100.00;102878.09;6256985;28;20053;-85
2021/10/08 01:23:55;;;;;;;2.75;1.00;;;;;;;7.37;100.00;102878.97;6256210;28;20420;-85
2021/10/08 01:26:57;;;;;;;1.77;1.20;;;;;;;7.38;100.00;102872.84;6256740;28;20053;-84
2021/10/08 01:30:02;;;;;;;1.25;1.00;;;;;;;7.33;100.00;102867.66;6276049;28;20053;-86
2021/10/08 01:33:04;;;;;;;1.23;1.10;;;;;;;7.31;100.00;102864.19;6291043;28;20052;-83
2021/10/08 01:36:07;;;;;;;1.92;1.13;;;;;;;7.24;100.00;102870.31;6292164;28;20044;-84
2021/10/08 01:39:08;;;;;;;2.25;1.08;;;;;;;7.21;100.00;102866.84;6292894;28;20057;-85
2021/10/08 01:42:09;;;;;;;2.30;1.35;;;;;;;7.19;100.00;102868.63;6294352;28;20044;-86
2021/10/08 01:45:14;;;;;;;2.38;1.48;;;;;;;7.16;100.00;102866.88;6293087;28;20052;-86
2021/10/08 01:48:15;;;;;;;1.50;1.05;;;;;;;7.14;100.00;102873.88;6288698;28;20049;-85
2021/10/08 01:51:18;;;;;;;2.25;1.20;;;;;;;7.10;100.00;102875.63;6281740;28;20049;-86
2021/10/08 01:54:19;;;;;;;2.88;1.45;;;;;;;7.10;100.00;102877.38;6280608;28;20045;-85
2021/10/08 01:57:21;;;;;;;2.55;1.58;;;;;;;7.09;100.00;102870.41;6279822;28;20048;-85
2021/10/08 02:00:22;;;;;;;2.50;1.30;;;;;;;7.05;100.00;102872.16;6279893;28;20053;-85
2021/10/08 02:03:24;;;;;;;2.03;0.85;;;;;;;7.06;100.00;102878.25;6279637;28;20049;-84
2021/10/08 02:06:27;;;;;;;1.50;0.95;;;;;;;7.05;100.00;102881.75;6279834;28;20053;-85
2021/10/08 02:09:28;;;;;;;0.80;0.80;;;;;;;7.00;100.00;102878.28;6279757;28;20438;-85
2021/10/08 02:12:30;;;;;;;2.38;1.23;;;;;;;6.94;100.00;102883.53;6279914;28;20060;-85
2021/10/08 02:15:31;;;;;;;2.33;1.08;;;;;;;6.89;100.00;102880.06;6278213;28;20045;-85
2021/10/08 02:18:32;;;;;;;0.90;0.75;;;;;;;6.93;100.00;102885.28;6279510;28;20045;-84
2021/10/08 02:21:35;;;;;;;2.22;1.20;;;;;;;6.96;100.00;102880.03;6279829;28;20049;-85
2021/10/08 02:24:36;;;;;;;1.88;1.20;;;;;;;6.98;100.00;102883.50;6279623;28;20060;-84
2021/10/08 02:27:38;;;;;;;1.52;1.27;;;;;;;6.97;100.00;102886.13;6280053;28;20056;-85
2021/10/08 02:30:39;;;;;;;4.05;1.67;;;;;;;6.94;100.00;102884.38;6279988;28;20053;-84
2021/10/08 02:33:41;;;;;;;1.15;0.75;;;;;;;6.91;100.00;102881.81;6279878;28;20052;-85
2021/10/08 02:36:44;;;;;;;2.08;1.10;;;;;;;6.88;100.00;102879.19;6279567;28;20048;-85
2021/10/08 02:39:45;;;;;;;1.08;0.98;;;;;;;6.85;100.00;102889.66;6276240;28;20052;-85
2021/10/08 02:42:47;;;;;;;1.65;1.15;;;;;;;6.80;100.00;102889.66;6275827;28;20041;-85
2021/10/08 02:45:49;;;;;;;3.35;1.27;;;;;;;6.75;100.00;102893.19;6275875;28;20060;-85
2021/10/08 02:48:50;;;;;;;2.60;1.70;;;;;;;6.72;100.00;102895.78;6275899;28;20052;-85
2021/10/08 02:51:54;;;;;;;1.33;0.90;;;;;;;6.68;100.00;102894.09;6275791;28;20074;-84
2021/10/08 02:54:55;;;;;;;1.98;1.30;;;;;;;6.68;100.00;102900.19;6275866;28;20056;-85
2021/10/08 02:57:57;;;;;;;1.73;1.20;;;;;;;6.71;100.00;102907.13;6275591;28;20056;-85
2021/10/08 03:00:58;;;;;;;3.35;1.60;;;;;;;6.67;100.00;102905.38;6276537;28;20056;-85
2021/10/08 03:04:00;;;;;;;1.90;1.27;;;;;;;6.65;100.00;102902.78;6276095;28;20076;-85
2021/10/08 03:07:03;;;;;;;1.73;1.10;;;;;;;6.69;100.00;102901.91;6276110;28;20076;-85
2021/10/08 03:10:07;;;;;;;2.72;1.67;;;;;;;6.66;100.00;102898.44;6276609;28;20053;-85
2021/10/08 03:13:08;;;;;;;2.40;1.15;;;;;;;6.67;100.00;102906.25;6276488;28;20499;-84
2021/10/08 03:16:10;;;;;;;3.25;1.27;;;;;;;6.63;100.00;102904.50;6276762;28;20424;-85
2021/10/08 03:19:11;;;;;;;2.42;1.42;;;;;;;6.61;100.00;102908.88;6276111;28;20053;-85
2021/10/08 03:22:14;;;;;;;3.25;1.67;;;;;;;6.56;100.00;102903.66;6276661;28;20060;-84
2021/10/08 03:25:15;;;;;;;1.75;1.60;;;;;;;6.55;100.00;102899.31;6276091;28;20500;-85
2021/10/08 03:28:16;;;;;;;4.88;1.45;;;;;;;6.53;100.00;102906.28;6277052;28;20049;-84
2021/10/08 03:31:18;;;;;;;2.25;1.58;;;;;;;6.52;100.00;102909.78;6276435;28;20053;-84
2021/10/08 03:34:19;;;;;;;2.17;1.33;;;;;;;6.50;100.00;102902.81;6276310;28;20060;-84
2021/10/08 03:37:27;;;;;;;2.47;1.38;;;;;;;6.49;100.00;102901.94;6276635;28;20492;-84
2021/10/08 03:40:30;;;;;;;1.92;1.27;;;;;;;6.43;100.00;102894.13;6276509;28;20056;-84
2021/10/08 03:43:31;;;;;;;3.60;1.70;;;;;;;6.41;100.00;102897.63;6276137;28;20045;-83
2021/10/08 03:46:37;;;;;;;2.05;1.25;;;;;;;6.38;100.00;102908.06;6275944;28;20114;-84
2021/10/08 03:49:39;;;;;;;3.08;1.70;;;;;;;6.34;100.00;102908.06;6276734;28;20053;-84
2021/10/08 03:52:42;;;;;;;2.90;1.10;;;;;;;6.34;100.00;102909.78;6275632;28;20052;-84
2021/10/08 03:55:43;;;;;;;1.45;1.05;;;;;;;6.33;100.00;102919.38;6276699;28;20052;-84
2021/10/08 03:58:44;;;;;;;2.35;1.45;;;;;;;6.31;100.00;102917.63;6277051;28;20085;-85
2021/10/08 04:01:46;;;;;;;1.70;1.20;;;;;;;6.28;100.00;102915.91;6276301;28;20496;-84
2021/10/08 04:04:47;;;;;;;1.92;1.58;;;;;;;6.28;100.00;102920.25;6276677;28;20045;-85
2021/10/08 04:07:50;;;;;;;2.42;1.42;;;;;;;6.31;100.00;102920.22;6276837;28;20049;-85
2021/10/08 04:10:51;;;;;;;2.15;1.55;;;;;;;6.24;100.00;102914.16;6276964;28;20049;-85
2021/10/08 04:13:53;;;;;;;2.80;1.60;;;;;;;6.24;100.00;102924.59;6277388;28;20041;-84
2021/10/08 04:16:54;;;;;;;3.05;1.50;;;;;;;6.25;100.00;102925.47;6277713;28;20056;-84
2021/10/08 04:19:55;;;;;;;3.80;1.70;;;;;;;6.17;100.00;102921.97;6277510;28;20519;-85
2021/10/08 04:22:58;;;;;;;2.33;1.27;;;;;;;6.08;100.00;102925.47;6277752;28;20045;-84
2021/10/08 04:25:59;;;;;;;3.83;1.52;;;;;;;5.98;100.00;102924.59;6278603;28;20052;-85
2021/10/08 04:29:01;;;;;;;2.60;1.52;;;;;;;6.00;100.00;102925.47;6277573;28;20053;-84
2021/10/08 04:32:02;;;;;;;2.00;1.15;;;;;;;6.01;100.00;102936.78;6278009;28;20463;-85
2021/10/08 04:35:04;;;;;;;1.63;1.40;;;;;;;6.04;100.00;102939.38;6277350;28;20044;-84
2021/10/08 04:38:07;;;;;;;2.92;1.58;;;;;;;5.97;100.00;102935.03;6278070;28;20045;-84
2021/10/08 04:41:09;;;;;;;2.95;1.60;;;;;;;5.89;100.00;102942.81;6278419;28;20463;-85
2021/10/08 04:44:10;;;;;;;3.03;1.48;;;;;;;5.80;100.00;102941.06;6277770;28;20049;-84
2021/10/08 04:47:12;;;;;;;1.95;1.70;;;;;;;5.69;100.00;102944.53;6278961;28;20519;-85
2021/10/08 04:50:14;;;;;;;3.03;1.73;;;;;;;5.69;100.00;102940.19;6278160;28;20135;-84
2021/10/08 04:53:20;;;;;;;4.00;1.63;;;;;;;5.73;100.00;102941.94;6279131;28;20710;-85
2021/10/08 04:56:21;;;;;;;2.38;1.50;;;;;;;5.78;100.00;102941.94;6279341;28;20056;-84
2021/10/08 04:59:22;;;;;;;2.65;1.70;;;;;;;5.80;100.00;102937.56;6278623;28;20052;-85
2021/10/08 05:02:24;;;;;;;3.20;1.95;;;;;;;5.81;100.00;102937.59;6279187;28;20401;-84
2021/10/08 05:05:25;;;;;;;6.05;1.88;;;;;;;5.78;100.00;102944.53;6279384;28;20053;-85
2021/10/08 05:08:28;;;;;;;2.72;1.52;;;;;;;5.73;100.00;102949.75;6280942;28;20488;-85
2021/10/08 05:11:30;;;;;;;3.63;1.70;;;;;;;5.71;100.00;102946.25;6279544;28;20059;-85
2021/10/08 05:14:31;;;;;;;3.47;1.55;;;;;;;5.72;100.00;102952.34;6279839;28;20049;-85
2021/10/08 05:17:32;;;;;;;1.48;1.30;;;;;;;5.71;100.00;102945.38;6280394;28;20427;-84
2021/10/08 05:20:34;;;;;;;3.85;1.40;;;;;;;5.72;100.00;102950.63;6282063;28;20518;-85
2021/10/08 05:23:37;;;;;;;3.42;2.30;;;;;;;5.71;100.00;102945.38;6280236;28;20053;-85
2021/10/08 05:26:38;;;;;;;2.45;1.58;;;;;;;5.71;100.00;102950.59;6281358;28;20056;-85
2021/10/08 05:29:39;;;;;;;2.67;1.73;;;;;;;5.67;100.00;102952.31;6275001;28;20041;-85
2021/10/08 05:32:41;;;;;;;3.83;2.30;;;;;;;5.62;100.00;102947.97;6282815;28;20045;-84
2021/10/08 05:35:43;;;;;;;2.65;1.33;;;;;;;5.58;100.00;102953.16;6282559;28;20052;-85
2021/10/08 05:38:45;;;;;;;2.92;1.58;;;;;;;5.58;100.00;102958.38;6284623;28;20059;-85
2021/10/08 05:41:47;;;;;;;2.25;1.40;;;;;;;5.62;100.00;102953.19;6282359;28;20049;-84
2021/10/08 05:44:48;;;;;;;2.83;1.40;;;;;;;5.62;100.00;102961.88;6271207;28;20037;-85
2021/10/08 05:47:49;;;;;;;3.33;1.63;;;;;;;5.59;100.00;102965.38;6272163;28;20045;-84
2021/10/08 05:50:51;;;;;;;6.68;2.92;;;;;;;5.60;100.00;102959.28;6271831;28;20045;-84
2021/10/08 05:53:53;;;;;;;5.95;3.50;;;;;;;5.62;100.00;102958.41;6271861;28;20056;-84
2021/10/08 05:56:55;;;;;;;10.57;4.15;;;;;;;5.66;100.00;102967.97;6272294;28;20056;-85
2021/10/08 05:59:56;;;;;;;6.20;2.70;;;;;;;5.66;100.00;102971.47;6301278;22;20049;-74
2021/10/08 06:02:57;;;;;;;5.70;2.47;;;;;;;5.68;100.00;102976.66;6296076;28;20041;-74
2021/10/08 06:05:59;;;;;;;6.60;2.65;;;;;;;5.69;100.00;102979.31;6272762;28;20049;-74
2021/10/08 06:09:02;;;;;;;2.40;1.60;;;;;;;5.71;100.00;102976.69;6283712;28;20055;-74
2021/10/08 06:12:04;;;;;;;1.85;1.50;;;;;;;5.70;100.00;102982.78;6295692;28;20049;-74
2021/10/08 06:15:07;;;;;;;4.32;2.00;;;;;;;5.71;100.00;102977.56;6296293;28;20045;-75
2021/10/08 06:18:08;;;;;;;4.25;1.60;;;;;;;5.71;100.00;102987.13;6300713;28;20044;-75
2021/10/08 06:21:10;;;;;;;2.80;1.80;;;;;;;5.75;100.00;102988.88;6300464;28;20071;-75
2021/10/08 06:24:12;;;;;;;4.13;1.88;;;;;;;5.79;100.00;102995.84;6300105;28;20044;-75
2021/10/08 06:27:13;;;;;;;6.38;2.40;;;;;;;5.84;100.00;102992.38;6300591;28;20491;-74
2021/10/08 06:30:15;;;;;;;2.70;1.83;;;;;;;5.91;100.00;103000.25;6300281;28;20048;-74
2021/10/08 06:33:16;;;;;;;3.35;2.05;;;;;;;5.96;100.00;103002.03;6300550;28;20435;-74
2021/10/08 06:36:17;;;;;;;3.08;1.83;;;;;;;6.01;100.00;103005.50;6300096;28;20052;-75
2021/10/08 06:39:20;;;;;;;6.03;2.25;;;;;;;6.05;100.00;103003.78;6300055;28;20059;-75
2021/10/08 06:42:24;;;;;;;3.50;2.17;;;;;;;6.12;100.00;103012.47;6300054;28;20052;-75
2021/10/08 06:45:25;;;;;;;2.17;1.60;;;;;;;6.17;100.00;103019.44;6299466;28;20476;-75
2021/10/08 06:48:27;;;;;;;3.17;2.15;;;;;;;6.22;100.00;103022.06;6299839;28;20139;-74
2021/10/08 06:51:28;;;;;;;2.80;1.92;;;;;;;6.24;100.00;103021.22;6299525;28;20427;-75
2021/10/08 06:54:31;;;;;;;2.88;2.17;;;;;;;6.29;100.00;103018.59;6299528;28;20048;-75
2021/10/08 06:57:32;;;;;;;6.47;1.95;;;;;;;6.36;100.00;103028.19;6299451;28;20060;-75
2021/10/08 07:00:33;;;;;;;3.97;2.47;;;;;;;6.43;100.00;103021.22;6299157;28;20071;-75
2021/10/08 07:03:35;;;;;;;6.53;2.50;;;;;;;6.52;100.00;103024.69;6299031;28;20048;-75
2021/10/08 07:06:36;;;;;;;5.15;2.95;;;;;;;6.58;100.00;103021.22;6299384;28;20048;-75
2021/10/08 07:09:39;;;;;;;3.40;1.98;;;;;;;6.65;100.00;103024.72;6299288;28;20499;-75
2021/10/08 07:12:40;;;;;;;4.35;2.47;;;;;;;6.70;100.00;103020.34;6299028;28;20044;-75
2021/10/08 07:15:41;;;;;;;2.55;1.50;;;;;;;6.77;100.00;103024.72;6299007;28;20048;-75
2021/10/08 07:18:45;;;;;;;4.15;2.50;;;;;;;6.83;100.00;103014.25;6298951;28;20056;-75
2021/10/08 07:21:46;;;;;;;4.15;2.05;;;;;;;6.90;100.00;103021.19;6298867;28;20056;-75
2021/10/08 07:24:49;;;;;;;5.28;2.83;;;;;;;6.97;100.00;103020.31;6298471;28;20048;-75
2021/10/08 07:27:51;;;;;;;5.35;2.97;;;;;;;7.03;100.00;103028.13;6298597;28;20049;-75
2021/10/08 07:30:53;;;;;;;6.35;2.55;;;;;;;7.10;100.00;103029.88;6298620;28;20052;-75
2021/10/08 07:33:55;;;;;;;6.47;2.58;;;;;;;7.19;100.00;103017.66;6298698;28;20056;-75
2021/10/08 07:36:56;;;;;;;5.97;2.58;;;;;;;7.25;100.00;103021.13;6298425;28;20055;-75
2021/10/08 07:39:59;;;;;;;5.60;2.85;;;;;;;7.31;100.00;103022.84;6298590;28;20052;-75
2021/10/08 07:43:00;;;;;;;6.65;2.80;;;;;;;7.36;100.00;103029.81;6298322;28;20442;-75
2021/10/08 07:46:01;;;;;;;5.03;2.08;;;;;;;7.44;100.00;103037.63;6297999;28;20055;-75
2021/10/08 07:49:03;;;;;;;4.38;2.25;;;;;;;7.51;100.00;103035.88;6298116;28;20079;-75
2021/10/08 07:52:05;;;;;;;5.68;2.50;;;;;;;7.55;100.00;103034.97;6297984;28;20600;-76
2021/10/08 07:55:10;;;;;;;6.75;2.67;;;;;;;7.64;100.00;103042.78;6297904;28;20532;-75
2021/10/08 07:58:12;;;;;;;5.35;2.35;;;;;;;7.71;100.00;103044.50;6297984;28;20044;-75
2021/10/08 08:01:13;;;;;;;2.80;2.10;;;;;;;7.80;100.00;103041.84;6297754;28;20052;-74
2021/10/08 08:04:14;;;;;;;4.60;2.20;;;;;;;7.88;100.00;103045.28;6297583;28;20134;-76
2021/10/08 08:07:16;;;;;;;6.03;2.53;;;;;;;7.98;100.00;103048.72;6297906;28;20411;-75
2021/10/08 08:10:18;;;;;;;4.25;2.42;;;;;;;8.05;100.00;103047.81;6295831;28;20045;-76
2021/10/08 08:13:20;;;;;;;4.40;2.45;;;;;;;8.13;100.00;103047.78;6297503;28;20048;-75
2021/10/08 08:16:21;;;;;;;4.07;2.75;;;;;;;8.20;100.00;103052.09;6295806;28;20431;-75
2021/10/08 08:19:23;;;;;;;5.07;2.63;;;;;;;8.29;100.00;103054.66;6296727;28;20063;-75
2021/10/08 08:22:24;;;;;;;5.10;2.78;;;;;;;8.38;100.00;103054.63;6297052;28;20179;-75
2021/10/08 08:25:27;;;;;;;3.67;2.05;;;;;;;8.48;100.00;103055.41;6296706;28;20048;-75
2021/10/08 08:28:28;;;;;;;4.40;2.75;;;;;;;8.58;100.00;103048.34;6297209;28;20514;-75
2021/10/08 08:31:30;;;;;;;4.00;2.42;;;;;;;8.69;100.00;103056.13;6296070;28;20044;-74
2021/10/08 08:34:31;;;;;;;6.13;2.80;;;;;;;8.72;100.00;103057.00;6296729;28;20040;-74
2021/10/08 08:37:33;;;;;;;5.88;2.28;;;;;;;8.81;100.00;103048.16;6291536;28;20505;-74
2021/10/08 08:40:36;;;;;;;7.13;2.60;;;;;;;8.90;100.00;103048.06;6294361;28;20499;-75
2021/10/08 08:43:37;;;;;;;3.08;2.25;;;;;;;8.98;100.00;103045.38;6295790;28;20101;-74
2021/10/08 08:46:38;;;;;;;4.38;2.63;;;;;;;9.07;100.00;103051.41;6296852;28;20056;-75
2021/10/08 08:49:40;;;;;;;3.10;2.25;;;;;;;9.18;100.00;103042.56;6296509;28;20048;-75
2021/10/08 08:52:45;;;;;;;5.43;2.38;;;;;;;9.28;100.00;103039.81;6296884;28;20060;-75
2021/10/08 08:55:48;;;;;;;4.43;2.65;;;;;;;9.39;100.00;103035.31;6295831;28;20052;-75
2021/10/08 08:58:58;;;;;;;2.97;2.35;;;;;;;9.52;100.00;103037.78;6296273;28;20425;-75
2021/10/08 09:02:01;;;;;;;6.43;3.25;;;;;;;9.58;100.00;103033.34;6275269;28;20048;-75
2021/10/08 09:05:04;;;;;;;6.32;3.28;;;;;;;9.67;100.00;103034.97;6296109;28;20066;-75
2021/10/08 09:08:07;;;;;;;6.43;3.10;;;;;;;9.77;100.00;103033.13;6296491;28;20056;-75
2021/10/08 09:11:09;;;;;;;6.25;2.88;;;;;;;9.87;100.00;103034.72;6294849;28;20060;-75
2021/10/08 09:14:18;;;;;;;5.18;2.50;;;;;;;9.92;100.00;103027.66;6291648;28;20555;-74
2021/10/08 09:17:20;;;;;;;5.35;3.30;;;;;;;10.08;100.00;103034.44;6294579;28;20048;-74
2021/10/08 09:20:21;;;;;;;3.67;2.05;;;;;;;10.21;100.00;103034.22;6278689;28;20056;-75
2021/10/08 09:23:29;;;;;;;5.32;3.05;;;;;;;10.31;100.00;103034.13;6285040;28;20533;-76
2021/10/08 09:26:32;;;;;;;4.95;2.60;;;;;;;10.41;100.00;103025.19;6295030;28;20051;-76
2021/10/08 09:29:34;;;;;;;8.98;2.70;;;;;;;10.58;100.00;103026.66;6296289;28;20060;-75
2021/10/08 09:32:42;;;;;;;6.13;3.03;;;;;;;10.64;100.00;103023.94;6295890;28;20052;-76
2021/10/08 09:35:44;;;;;;;4.00;1.80;;;;;;;10.78;100.00;103028.97;6295968;28;20048;-76
2021/10/08 09:38:46;;;;;;;6.85;2.55;;;;;;;10.89;100.00;103016.47;6296168;28;20132;-75
2021/10/08 09:41:57;;;;;;;5.70;1.92;;;;;;;10.94;100.00;103019.88;6296109;28;20139;-75
2021/10/08 09:44:59;;;;;;;3.53;1.88;;;;;;;11.05;100.00;103014.44;6295562;28;20052;-75
2021/10/08 09:48:00;;;;;;;3.80;2.10;;;;;;;11.18;100.00;103021.22;6295988;28;20543;-74
2021/10/08 09:51:07;;;;;;;3.33;2.00;;;;;;;11.30;100.00;103015.69;6300040;28;20079;-74
2021/10/08 09:54:08;;;;;;;2.72;1.58;;;;;;;11.37;100.00;103014.69;6300939;28;20040;-76
2021/10/08 09:57:11;;;;;;;2.80;1.65;;;;;;;11.54;100.00;103014.34;6301034;28;20052;-75
2021/10/08 10:00:33;;;;;;;2.20;1.65;;;;;;;11.66;100.00;103019.31;6300819;28;20059;-75
2021/10/08 10:03:34;;;;;;;3.90;2.03;;;;;;;11.82;100.00;103024.28;6300369;28;20052;-75
2021/10/08 10:06:37;;;;;;;3.80;2.08;;;;;;;11.93;100.00;103022.28;6300840;28;20071;-75
2021/10/08 10:09:38;;;;;;;2.28;1.48;;;;;;;12.02;100.00;103024.72;6300501;28;20044;-75
2021/10/08 10:12:41;;;;;;;2.05;1.70;;;;;;;12.18;100.00;103025.25;6300703;28;20055;-75
2021/10/08 10:15:45;;;;;;;2.85;1.92;;;;;;;12.34;100.00;103026.59;6300419;28;20056;-75
2021/10/08 10:18:48;;;;;;;2.53;1.42;;;;;;;12.38;100.00;103022.97;6300577;28;20051;-75
2021/10/08 10:21:50;;;;;;;5.55;1.92;;;;;;;12.43;100.00;103017.59;6298532;28;20045;-76
2021/10/08 10:24:52;;;;;;;3.17;2.20;;;;;;;12.62;100.00;103018.00;6299939;28;20238;-76
2021/10/08 10:27:55;;;;;;;3.88;1.80;;;;;;;12.76;100.00;103013.22;6300087;28;20052;-76
2021/10/08 10:30:58;;;;;;;2.47;1.70;;;;;;;12.84;100.00;103013.03;6300125;28;20048;-77
2021/10/08 10:34:01;;;;;;;2.65;1.92;;;;;;;12.98;100.00;103010.88;6299364;28;20037;-76
2021/10/08 10:37:03;;;;;;;2.88;2.00;;;;;;;13.26;100.00;103008.38;6297921;28;20072;-76
2021/10/08 10:40:18;;;;;;;3.35;2.15;;;;;;;13.36;100.00;103011.66;6298960;28;20052;-75
2021/10/08 10:43:32;;;;;;;3.17;1.77;;;;;;;13.45;100.00;103011.38;6299609;28;20052;-76
2021/10/08 10:46:40;;;;;;;5.38;2.17;;;;;;;13.60;100.00;103013.56;6299349;28;20093;-76
2021/10/08 10:53:02;;;;;;;4.28;2.30;;;;;;;13.81;100.00;103011.19;6294054;28;20094;-76
2021/10/08 10:56:03;;;;;;;3.95;1.80;;;;;;;13.94;100.00;103005.47;6299440;28;20044;-76
2021/10/08 10:59:27;;;;;;;3.53;1.75;;;;;;;14.14;100.00;103001.34;6299343;28;20518;-76
2021/10/08 11:02:34;;;;;;;2.55;1.63;;;;;;;14.33;100.00;102997.16;6299084;28;20048;-76
2021/10/08 11:05:38;;;;;;;2.92;1.45;;;;;;;14.56;99.46;102993.78;6299131;28;20055;-76
2021/10/08 11:09:15;;;;;;;2.03;1.75;;;;;;;14.79;98.39;102985.03;6299488;28;20135;-76
2021/10/08 11:12:30;;;;;;;2.88;1.98;;;;;;;15.07;95.47;102987.56;6299393;28;20051;-76
2021/10/08 11:15:38;;;;;;;3.33;1.88;;;;;;;15.25;92.82;102983.38;6299073;28;20055;-76
2021/10/08 11:18:47;;;;;;;2.40;1.65;;;;;;;15.50;91.51;102979.81;6299094;28;20052;-76
2021/10/08 11:21:49;;;;;;;1.85;1.58;;;;;;;15.70;91.34;102978.13;6299239;28;20499;-76
2021/10/08 11:25:04;;;;;;;2.95;1.75;;;;;;;15.87;90.16;102977.47;6298738;28;20048;-75
2021/10/08 11:28:05;;;;;;;3.47;1.38;;;;;;;16.07;88.97;102967.84;6299306;28;20057;-75
2021/10/08 11:31:10;;;;;;;2.05;1.60;;;;;;;16.30;89.04;102964.25;6298506;28;20048;-75
2021/10/08 11:34:14;;;;;;;4.25;1.73;;;;;;;16.57;87.43;102963.06;6298796;28;20052;-75
2021/10/08 11:37:15;;;;;;;3.00;1.80;;;;;;;16.73;85.50;102950.88;6298508;28;20528;-76
2021/10/08 11:40:27;;;;;;;2.13;1.70;;;;;;;16.92;84.68;102960.69;6298354;28;20392;-76
2021/10/08 11:43:31;;;;;;;2.55;1.73;;;;;;;17.05;84.97;102961.00;6298203;28;20049;-75
2021/10/08 11:46:39;;;;;;;3.40;1.98;;;;;;;17.14;82.26;102960.59;6297908;28;20479;-76
2021/10/08 11:53:01;;;;;;;2.90;1.65;;;;;;;17.17;84.36;102958.66;6298105;28;20408;-76
2021/10/08 11:56:12;;;;;;;3.33;2.00;;;;;;;17.23;82.64;102954.88;6297232;28;20048;-76
2021/10/08 12:02:17;;;;;;;3.42;2.03;;;;;;;17.23;83.93;102949.53;6253782;28;20055;-81
2021/10/08 12:05:19;;;;;;;2.38;1.83;;;;;;;17.49;81.13;102951.84;6270663;28;20048;-82
2021/10/08 12:08:21;;;;;;;2.95;1.45;;;;;;;17.68;81.07;102950.97;6268774;28;20396;-86
2021/10/08 12:11:23;;;;;;;5.32;2.20;;;;;;;17.61;79.72;102939.75;6276059;28;20494;-81
2021/10/08 12:14:24;;;;;;;2.50;1.55;;;;;;;17.21;81.72;102936.34;6274062;28;20500;-82
2021/10/08 12:17:27;;;;;;;2.83;1.92;;;;;;;16.77;84.63;102937.50;6271599;28;20044;-82
2021/10/08 12:20:31;;;;;;;2.30;1.60;;;;;;;16.31;85.98;102932.34;6274476;28;20041;-82
2021/10/08 12:23:32;;;;;;;2.22;1.80;;;;;;;16.19;88.08;102932.88;6274816;28;20041;-82
2021/10/08 12:26:36;;;;;;;3.33;1.60;;;;;;;16.03;87.11;102935.28;6274484;28;20045;-81
2021/10/08 12:29:42;;;;;;;3.35;2.13;;;;;;;15.98;89.09;102935.47;6274636;28;20049;-82
2021/10/08 12:33:03;;;;;;;3.67;2.53;;;;;;;16.01;88.37;102933.63;6275043;28;20484;-82
2021/10/08 12:36:20;;;;;;;5.25;2.35;;;;;;;16.17;88.73;102924.13;6252111;28;20053;-84
2021/10/08 12:39:21;;;;;;;3.60;2.50;;;;;;;16.25;89.38;102927.28;6250720;28;20057;-82
2021/10/08 12:42:25;;;;;;;4.88;2.50;;;;;;;16.59;87.41;102925.84;6250661;28;20053;-82
2021/10/08 12:45:33;;;;;;;5.13;2.47;;;;;;;16.41;88.42;102928.38;6249766;28;20432;-80
2021/10/08 12:48:36;;;;;;;5.70;2.90;;;;;;;16.17;90.54;102932.94;6270573;28;20420;-81
2021/10/08 12:51:49;;;;;;;9.23;3.95;;;;;;;15.94;91.57;102927.69;6274957;28;20044;-82
2021/10/08 12:55:04;;;;;;;4.65;2.90;;;;;;;15.93;92.94;102939.25;6275156;28;20045;-81
2021/10/08 12:58:09;;;;;;;6.53;3.60;;;;;;;16.19;93.24;102923.13;6275607;28;20056;-82
2021/10/08 13:01:12;;;;;;;5.78;3.35;;;;;;;16.85;88.92;102922.06;6275545;28;20063;-80
2021/10/08 13:04:19;;;;;;;7.03;4.13;;;;;;;17.36;84.98;102923.25;6274117;28;20053;-82
2021/10/08 13:07:21;;;;;;;5.57;2.55;;;;;;;17.72;81.73;102917.97;6270726;28;20053;-82
2021/10/08 13:10:23;;;;;;;4.25;2.45;;;;;;;18.19;75.62;102915.63;6276335;28;20045;-82
2021/10/08 13:13:26;;;;;;;5.63;3.15;;;;;;;18.12;76.48;102911.59;6276926;28;20435;-81
2021/10/08 13:16:32;;;;;;;7.75;3.20;;;;;;;18.08;79.63;102915.34;6277007;28;20048;-81
2021/10/08 13:19:36;;;;;;;6.90;3.00;;;;;;;17.73;80.77;102919.69;6279644;28;20053;-81
2021/10/08 13:22:38;;;;;;;4.65;3.03;;;;;;;17.33;83.07;102918.94;6275988;28;20047;-81
2021/10/08 13:25:43;;;;;;;6.80;3.17;;;;;;;16.98;84.86;102920.56;6274365;28;20041;-79
2021/10/08 13:28:44;;;;;;;4.55;3.22;;;;;;;16.61;85.57;102916.88;6272102;28;20080;-81
2021/10/08 13:31:46;;;;;;;7.78;3.33;;;;;;;16.38;87.20;102924.97;6272234;28;20056;-81
2021/10/08 13:34:49;;;;;;;6.90;2.92;;;;;;;16.20;87.60;102916.00;6271800;28;20520;-81
2021/10/08 13:37:51;;;;;;;8.05;3.47;;;;;;;16.08;90.31;102908.56;6272152;28;20056;-82
2021/10/08 13:40:55;;;;;;;3.17;2.45;;;;;;;16.02;89.75;102903.53;6271628;28;20053;-82
2021/10/08 13:43:57;;;;;;;3.83;2.30;;;;;;;16.07;88.85;102907.69;6271825;28;20060;-83
2021/10/08 13:46:58;;;;;;;5.20;2.97;;;;;;;16.41;87.83;102901.84;6271776;28;20048;-82
2021/10/08 13:50:01;;;;;;;9.60;3.28;;;;;;;16.24;88.24;102893.72;6271601;28;20056;-82
2021/10/08 13:53:03;;;;;;;6.53;2.85;;;;;;;16.05;89.71;102898.97;6272256;28;20053;-78
2021/10/08 13:56:05;;;;;;;4.10;2.58;;;;;;;15.93;91.16;102897.66;6272533;28;20056;-77
2021/10/08 13:59:06;;;;;;;4.63;3.17;;;;;;;15.86;91.90;102900.66;6272386;28;20056;-79
2021/10/08 14:02:10;;;;;;;7.38;3.97;;;;;;;15.84;91.17;102897.19;6272658;28;20045;-78
2021/10/08 14:05:21;;;;;;;5.90;3.53;;;;;;;15.77;91.42;102899.25;6272197;28;20484;-78
2021/10/08 14:08:32;;;;;;;5.25;2.97;;;;;;;15.68;91.43;102896.97;6272129;28;20056;-79
2021/10/08 14:11:33;;;;;;;6.10;3.22;;;;;;;15.64;92.19;102896.22;6272193;28;20045;-78
2021/10/08 14:14:34;;;;;;;6.63;3.45;;;;;;;15.64;92.80;102890.91;6271568;28;20049;-79
2021/10/08 14:17:36;;;;;;;5.47;3.08;;;;;;;15.70;92.14;102893.31;6272093;28;20049;-78
2021/10/08 14:20:40;;;;;;;7.13;3.97;;;;;;;15.74;93.03;102886.09;6271983;28;20060;-78